sensor_id;sensor_type;location;lat;lon;timestamp;temperature;humidity
13808;DHT22;40769;51.512;5.494;2023-04-08T00:01:04;11.40;99.90
13808;DHT22;40769;51.512;5.494;2023-04-08T00:03:29;11.40;99.90
13808;DHT22;40769;51.512;5.494;2023-04-08T00:05:55;10.90;99.90
13808;DHT22;40769;51.512;5.494;2023-04-08T00:08:21;11.40;99.90
13808;DHT22;40769;51.512;5.494;2023-04-08T00:10:46;11.50;99.90
13808;DHT22;40769;51.512;5.494;2023-04-08T00:13:12;11.40;99.90
13808;DHT22;40769;51.512;5.494;2023-04-08T00:15:40;11.30;99.90
13808;DHT22;40769;51.512;5.494;2023-04-08T00:18:06;11.30;99.90
13808;DHT22;40769;51.512;5.494;2023-04-08T00:20:32;11.40;99.90
13808;DHT22;40769;51.512;5.494;2023-04-08T00:22:58;11.40;99.90
13808;DHT22;40769;51.512;5.494;2023-04-08T00:25:24;11.50;99.90
13808;DHT22;40769;51.512;5.494;2023-04-08T00:27:49;11.40;99.90
13808;DHT22;40769;51.512;5.494;2023-04-08T00:30:15;11.50;99.90
13808;DHT22;40769;51.512;5.494;2023-04-08T00:32:41;11.50;99.90
13808;DHT22;40769;51.512;5.494;2023-04-08T00:35:07;11.60;99.90
13808;DHT22;40769;51.512;5.494;2023-04-08T00:37:33;11.60;99.90
13808;DHT22;40769;51.512;5.494;2023-04-08T00:39:59;11.60;99.90
13808;DHT22;40769;51.512;5.494;2023-04-08T00:42:25;11.60;99.90
13808;DHT22;40769;51.512;5.494;2023-04-08T00:44:51;11.50;99.90
13808;DHT22;40769;51.512;5.494;2023-04-08T00:47:16;11.50;99.90
13808;DHT22;40769;51.512;5.494;2023-04-08T00:49:43;11.40;99.90
13808;DHT22;40769;51.512;5.494;2023-04-08T00:52:08;11.50;99.90
13808;DHT22;40769;51.512;5.494;2023-04-08T00:54:36;11.50;99.90
13808;DHT22;40769;51.512;5.494;2023-04-08T00:57:02;11.60;99.90
13808;DHT22;40769;51.512;5.494;2023-04-08T00:59:28;11.60;99.90
13808;DHT22;40769;51.512;5.494;2023-04-08T01:02:02;11.60;99.90
13808;DHT22;40769;51.512;5.494;2023-04-08T01:05:08;11.60;99.90
13808;DHT22;40769;51.512;5.494;2023-04-08T01:07:44;11.60;99.90
13808;DHT22;40769;51.512;5.494;2023-04-08T01:10:21;11.60;99.90
13808;DHT22;40769;51.512;5.494;2023-04-08T01:12:58;11.50;99.90
13808;DHT22;40769;51.512;5.494;2023-04-08T01:15:27;11.40;99.90
13808;DHT22;40769;51.512;5.494;2023-04-08T01:17:55;11.60;99.90
13808;DHT22;40769;51.512;5.494;2023-04-08T01:20:23;11.30;99.90
13808;DHT22;40769;51.512;5.494;2023-04-08T01:25:35;11.40;99.90
13808;DHT22;40769;51.512;5.494;2023-04-08T01:28:14;11.50;99.90
13808;DHT22;40769;51.512;5.494;2023-04-08T01:30:41;11.50;99.90
13808;DHT22;40769;51.512;5.494;2023-04-08T01:33:10;11.60;99.90
13808;DHT22;40769;51.512;5.494;2023-04-08T01:35:36;11.60;99.90
13808;DHT22;40769;51.512;5.494;2023-04-08T01:38:07;11.60;99.90
13808;DHT22;40769;51.512;5.494;2023-04-08T01:40:34;11.60;99.90
13808;DHT22;40769;51.512;5.494;2023-04-08T01:43:03;11.50;99.90
13808;DHT22;40769;51.512;5.494;2023-04-08T01:45:30;11.40;99.90
13808;DHT22;40769;51.512;5.494;2023-04-08T01:47:56;11.30;99.90
13808;DHT22;40769;51.512;5.494;2023-04-08T01:50:23;11.30;99.90
13808;DHT22;40769;51.512;5.494;2023-04-08T01:52:50;11.30;99.90
13808;DHT22;40769;51.512;5.494;2023-04-08T01:55:18;11.30;99.90
13808;DHT22;40769;51.512;5.494;2023-04-08T01:57:48;11.40;99.90
13808;DHT22;40769;51.512;5.494;2023-04-08T02:00:18;11.40;99.90
13808;DHT22;40769;51.512;5.494;2023-04-08T02:02:45;11.50;99.90
13808;DHT22;40769;51.512;5.494;2023-04-08T02:05:12;11.50;99.90
13808;DHT22;40769;51.512;5.494;2023-04-08T02:07:38;11.60;99.90
13808;DHT22;40769;51.512;5.494;2023-04-08T02:10:04;11.50;99.90
13808;DHT22;40769;51.512;5.494;2023-04-08T02:12:30;11.40;99.90
13808;DHT22;40769;51.512;5.494;2023-04-08T02:14:57;11.40;99.90
13808;DHT22;40769;51.512;5.494;2023-04-08T02:17:39;11.30;99.90
13808;DHT22;40769;51.512;5.494;2023-04-08T02:20:09;11.30;99.90
13808;DHT22;40769;51.512;5.494;2023-04-08T02:25:24;11.30;99.90
13808;DHT22;40769;51.512;5.494;2023-04-08T02:27:51;11.30;99.90
13808;DHT22;40769;51.512;5.494;2023-04-08T02:30:19;11.40;99.90
13808;DHT22;40769;51.512;5.494;2023-04-08T02:32:46;11.40;99.90
13808;DHT22;40769;51.512;5.494;2023-04-08T02:35:13;11.40;99.90
13808;DHT22;40769;51.512;5.494;2023-04-08T02:37:40;11.30;99.90
13808;DHT22;40769;51.512;5.494;2023-04-08T02:40:29;11.30;99.90
13808;DHT22;40769;51.512;5.494;2023-04-08T02:42:55;11.20;99.90
13808;DHT22;40769;51.512;5.494;2023-04-08T02:45:22;11.20;99.90
13808;DHT22;40769;51.512;5.494;2023-04-08T02:47:49;11.20;99.90
13808;DHT22;40769;51.512;5.494;2023-04-08T02:50:15;11.20;99.90
13808;DHT22;40769;51.512;5.494;2023-04-08T02:52:41;11.20;99.90
13808;DHT22;40769;51.512;5.494;2023-04-08T02:55:08;11.30;99.90
13808;DHT22;40769;51.512;5.494;2023-04-08T02:57:39;11.40;99.90
13808;DHT22;40769;51.512;5.494;2023-04-08T03:00:05;11.40;99.90
13808;DHT22;40769;51.512;5.494;2023-04-08T03:02:31;11.50;99.90
13808;DHT22;40769;51.512;5.494;2023-04-08T03:04:57;11.50;99.90
13808;DHT22;40769;51.512;5.494;2023-04-08T03:07:23;11.60;99.90
13808;DHT22;40769;51.512;5.494;2023-04-08T03:09:49;11.60;99.90
13808;DHT22;40769;51.512;5.494;2023-04-08T03:12:14;11.70;99.90
13808;DHT22;40769;51.512;5.494;2023-04-08T03:14:40;11.70;99.90
13808;DHT22;40769;51.512;5.494;2023-04-08T03:17:05;11.70;99.90
13808;DHT22;40769;51.512;5.494;2023-04-08T03:19:31;11.70;99.90
13808;DHT22;40769;51.512;5.494;2023-04-08T03:21:57;12.00;99.90
13808;DHT22;40769;51.512;5.494;2023-04-08T03:24:22;11.60;99.90
13808;DHT22;40769;51.512;5.494;2023-04-08T03:26:48;11.70;99.90
13808;DHT22;40769;51.512;5.494;2023-04-08T03:29:13;11.70;99.90
13808;DHT22;40769;51.512;5.494;2023-04-08T03:31:39;11.60;99.90
13808;DHT22;40769;51.512;5.494;2023-04-08T03:34:05;11.70;99.90
13808;DHT22;40769;51.512;5.494;2023-04-08T03:36:30;11.60;99.90
13808;DHT22;40769;51.512;5.494;2023-04-08T03:38:56;11.60;99.90
13808;DHT22;40769;51.512;5.494;2023-04-08T03:41:22;11.60;99.90
13808;DHT22;40769;51.512;5.494;2023-04-08T03:43:48;11.60;99.90
13808;DHT22;40769;51.512;5.494;2023-04-08T03:46:13;11.60;99.90
13808;DHT22;40769;51.512;5.494;2023-04-08T03:48:39;11.50;99.90
13808;DHT22;40769;51.512;5.494;2023-04-08T03:51:04;11.50;99.90
13808;DHT22;40769;51.512;5.494;2023-04-08T03:53:30;11.50;99.90
13808;DHT22;40769;51.512;5.494;2023-04-08T03:55:56;11.50;99.90
13808;DHT22;40769;51.512;5.494;2023-04-08T03:58:22;11.50;99.90
13808;DHT22;40769;51.512;5.494;2023-04-08T04:00:48;11.40;99.90
13808;DHT22;40769;51.512;5.494;2023-04-08T04:03:14;11.40;99.90
13808;DHT22;40769;51.512;5.494;2023-04-08T04:05:39;11.40;99.90
13808;DHT22;40769;51.512;5.494;2023-04-08T04:08:05;11.50;99.90
13808;DHT22;40769;51.512;5.494;2023-04-08T04:10:31;11.50;99.90
13808;DHT22;40769;51.512;5.494;2023-04-08T04:12:57;11.50;99.90
13808;DHT22;40769;51.512;5.494;2023-04-08T04:15:22;11.50;99.90
13808;DHT22;40769;51.512;5.494;2023-04-08T04:17:48;11.50;99.90
13808;DHT22;40769;51.512;5.494;2023-04-08T04:20:17;11.60;99.90
13808;DHT22;40769;51.512;5.494;2023-04-08T04:22:43;11.60;99.90
13808;DHT22;40769;51.512;5.494;2023-04-08T04:25:09;11.60;99.90
13808;DHT22;40769;51.512;5.494;2023-04-08T04:27:35;11.60;99.90
13808;DHT22;40769;51.512;5.494;2023-04-08T04:30:01;11.60;99.90
13808;DHT22;40769;51.512;5.494;2023-04-08T04:32:27;11.60;99.90
13808;DHT22;40769;51.512;5.494;2023-04-08T04:34:56;11.70;99.90
13808;DHT22;40769;51.512;5.494;2023-04-08T04:37:21;11.70;99.90
13808;DHT22;40769;51.512;5.494;2023-04-08T04:39:47;11.80;99.90
13808;DHT22;40769;51.512;5.494;2023-04-08T04:42:13;11.80;99.90
13808;DHT22;40769;51.512;5.494;2023-04-08T04:44:39;11.80;99.90
13808;DHT22;40769;51.512;5.494;2023-04-08T04:47:04;11.80;99.90
13808;DHT22;40769;51.512;5.494;2023-04-08T04:49:30;11.80;99.90
13808;DHT22;40769;51.512;5.494;2023-04-08T04:51:56;11.80;99.90
13808;DHT22;40769;51.512;5.494;2023-04-08T04:54:21;11.80;99.90
13808;DHT22;40769;51.512;5.494;2023-04-08T04:56:47;11.80;99.90
13808;DHT22;40769;51.512;5.494;2023-04-08T04:59:12;11.80;99.90
13808;DHT22;40769;51.512;5.494;2023-04-08T05:01:38;11.80;99.90
13808;DHT22;40769;51.512;5.494;2023-04-08T05:04:06;11.90;99.90
13808;DHT22;40769;51.512;5.494;2023-04-08T05:06:32;11.80;99.90
13808;DHT22;40769;51.512;5.494;2023-04-08T05:08:57;11.80;99.90
13808;DHT22;40769;51.512;5.494;2023-04-08T05:11:23;11.90;99.90
13808;DHT22;40769;51.512;5.494;2023-04-08T05:13:49;11.90;99.90
13808;DHT22;40769;51.512;5.494;2023-04-08T05:16:14;11.90;99.90
13808;DHT22;40769;51.512;5.494;2023-04-08T05:18:41;12.00;99.90
13808;DHT22;40769;51.512;5.494;2023-04-08T05:21:06;11.90;99.90
13808;DHT22;40769;51.512;5.494;2023-04-08T05:23:33;11.80;99.90
13808;DHT22;40769;51.512;5.494;2023-04-08T05:25:59;11.80;99.90
13808;DHT22;40769;51.512;5.494;2023-04-08T05:28:25;11.80;99.90
13808;DHT22;40769;51.512;5.494;2023-04-08T05:30:51;11.80;99.90
13808;DHT22;40769;51.512;5.494;2023-04-08T05:33:17;11.80;99.90
13808;DHT22;40769;51.512;5.494;2023-04-08T05:35:43;11.90;99.90
13808;DHT22;40769;51.512;5.494;2023-04-08T05:38:09;12.00;99.90
13808;DHT22;40769;51.512;5.494;2023-04-08T05:40:36;12.00;99.90
13808;DHT22;40769;51.512;5.494;2023-04-08T05:43:01;12.00;99.90
13808;DHT22;40769;51.512;5.494;2023-04-08T05:45:27;12.00;99.90
13808;DHT22;40769;51.512;5.494;2023-04-08T05:47:53;12.10;99.90
13808;DHT22;40769;51.512;5.494;2023-04-08T05:50:19;12.20;99.90
13808;DHT22;40769;51.512;5.494;2023-04-08T05:52:45;12.20;99.90
13808;DHT22;40769;51.512;5.494;2023-04-08T05:55:11;12.20;99.90
13808;DHT22;40769;51.512;5.494;2023-04-08T05:57:38;12.20;99.90
13808;DHT22;40769;51.512;5.494;2023-04-08T06:00:08;12.30;99.90
13808;DHT22;40769;51.512;5.494;2023-04-08T06:02:34;12.30;99.90
13808;DHT22;40769;51.512;5.494;2023-04-08T06:05:01;12.40;99.90
13808;DHT22;40769;51.512;5.494;2023-04-08T06:07:31;12.40;99.90
13808;DHT22;40769;51.512;5.494;2023-04-08T06:09:57;12.40;99.90
13808;DHT22;40769;51.512;5.494;2023-04-08T06:12:22;12.40;99.90
13808;DHT22;40769;51.512;5.494;2023-04-08T06:14:53;12.50;99.90
13808;DHT22;40769;51.512;5.494;2023-04-08T06:17:19;12.50;99.90
13808;DHT22;40769;51.512;5.494;2023-04-08T06:19:45;12.60;99.90
13808;DHT22;40769;51.512;5.494;2023-04-08T06:22:10;12.60;99.90
13808;DHT22;40769;51.512;5.494;2023-04-08T06:24:36;12.70;99.90
13808;DHT22;40769;51.512;5.494;2023-04-08T06:27:02;12.70;99.90
13808;DHT22;40769;51.512;5.494;2023-04-08T06:29:27;12.70;99.90
13808;DHT22;40769;51.512;5.494;2023-04-08T06:31:54;12.70;99.90
13808;DHT22;40769;51.512;5.494;2023-04-08T06:34:20;12.90;99.90
13808;DHT22;40769;51.512;5.494;2023-04-08T06:36:46;12.80;99.90
13808;DHT22;40769;51.512;5.494;2023-04-08T06:39:12;12.80;99.90
13808;DHT22;40769;51.512;5.494;2023-04-08T06:41:39;12.80;99.90
13808;DHT22;40769;51.512;5.494;2023-04-08T06:44:05;12.80;99.90
13808;DHT22;40769;51.512;5.494;2023-04-08T06:46:31;12.90;99.90
13808;DHT22;40769;51.512;5.494;2023-04-08T06:48:57;12.90;99.90
13808;DHT22;40769;51.512;5.494;2023-04-08T06:51:22;13.00;99.90
13808;DHT22;40769;51.512;5.494;2023-04-08T06:53:48;13.00;99.90
13808;DHT22;40769;51.512;5.494;2023-04-08T06:56:13;13.00;99.90
13808;DHT22;40769;51.512;5.494;2023-04-08T06:58:39;13.10;99.90
13808;DHT22;40769;51.512;5.494;2023-04-08T07:01:05;13.10;99.90
13808;DHT22;40769;51.512;5.494;2023-04-08T07:03:31;13.20;99.90
13808;DHT22;40769;51.512;5.494;2023-04-08T07:05:56;13.20;99.90
13808;DHT22;40769;51.512;5.494;2023-04-08T07:08:22;13.20;99.90
13808;DHT22;40769;51.512;5.494;2023-04-08T07:10:47;13.30;99.90
13808;DHT22;40769;51.512;5.494;2023-04-08T07:13:13;13.30;99.90
13808;DHT22;40769;51.512;5.494;2023-04-08T07:15:40;13.30;99.90
13808;DHT22;40769;51.512;5.494;2023-04-08T07:18:05;13.30;99.90
13808;DHT22;40769;51.512;5.494;2023-04-08T07:20:31;13.30;99.90
13808;DHT22;40769;51.512;5.494;2023-04-08T07:23:00;13.30;99.90
13808;DHT22;40769;51.512;5.494;2023-04-08T07:25:25;13.30;99.90
13808;DHT22;40769;51.512;5.494;2023-04-08T07:27:51;13.30;99.90
13808;DHT22;40769;51.512;5.494;2023-04-08T07:30:17;13.30;99.90
13808;DHT22;40769;51.512;5.494;2023-04-08T07:32:43;13.30;99.90
13808;DHT22;40769;51.512;5.494;2023-04-08T07:35:09;13.30;99.90
13808;DHT22;40769;51.512;5.494;2023-04-08T07:37:34;13.30;99.90
13808;DHT22;40769;51.512;5.494;2023-04-08T07:40:00;13.30;99.90
13808;DHT22;40769;51.512;5.494;2023-04-08T07:42:26;13.30;99.90
13808;DHT22;40769;51.512;5.494;2023-04-08T07:44:51;13.20;99.90
13808;DHT22;40769;51.512;5.494;2023-04-08T07:47:18;13.20;99.90
13808;DHT22;40769;51.512;5.494;2023-04-08T07:49:45;13.20;99.90
13808;DHT22;40769;51.512;5.494;2023-04-08T07:52:11;13.20;99.90
13808;DHT22;40769;51.512;5.494;2023-04-08T07:54:40;13.20;99.90
13808;DHT22;40769;51.512;5.494;2023-04-08T07:57:06;13.30;99.90
13808;DHT22;40769;51.512;5.494;2023-04-08T07:59:31;13.30;99.90
13808;DHT22;40769;51.512;5.494;2023-04-08T08:01:57;13.30;99.90
13808;DHT22;40769;51.512;5.494;2023-04-08T08:04:23;13.40;99.90
13808;DHT22;40769;51.512;5.494;2023-04-08T08:06:50;13.40;99.90
13808;DHT22;40769;51.512;5.494;2023-04-08T08:09:16;13.50;99.90
13808;DHT22;40769;51.512;5.494;2023-04-08T08:11:41;13.50;99.90
13808;DHT22;40769;51.512;5.494;2023-04-08T08:14:07;13.50;99.90
13808;DHT22;40769;51.512;5.494;2023-04-08T08:16:32;13.50;99.90
13808;DHT22;40769;51.512;5.494;2023-04-08T08:18:58;13.50;99.90
13808;DHT22;40769;51.512;5.494;2023-04-08T08:21:24;13.60;99.90
13808;DHT22;40769;51.512;5.494;2023-04-08T08:23:51;13.60;99.90
13808;DHT22;40769;51.512;5.494;2023-04-08T08:26:20;13.80;99.90
13808;DHT22;40769;51.512;5.494;2023-04-08T08:28:45;13.70;99.90
13808;DHT22;40769;51.512;5.494;2023-04-08T08:31:11;13.70;99.90
13808;DHT22;40769;51.512;5.494;2023-04-08T08:33:37;13.70;99.90
13808;DHT22;40769;51.512;5.494;2023-04-08T08:36:02;13.80;99.90
13808;DHT22;40769;51.512;5.494;2023-04-08T08:38:29;13.80;99.90
13808;DHT22;40769;51.512;5.494;2023-04-08T08:40:57;13.90;99.90
13808;DHT22;40769;51.512;5.494;2023-04-08T08:43:23;14.00;99.90
13808;DHT22;40769;51.512;5.494;2023-04-08T08:45:49;14.10;99.90
13808;DHT22;40769;51.512;5.494;2023-04-08T08:48:15;14.10;99.90
13808;DHT22;40769;51.512;5.494;2023-04-08T08:50:42;14.30;99.90
13808;DHT22;40769;51.512;5.494;2023-04-08T08:53:07;14.30;99.90
13808;DHT22;40769;51.512;5.494;2023-04-08T08:55:33;14.30;99.90
13808;DHT22;40769;51.512;5.494;2023-04-08T08:58:00;14.30;99.90
13808;DHT22;40769;51.512;5.494;2023-04-08T09:00:37;14.40;99.90
13808;DHT22;40769;51.512;5.494;2023-04-08T09:05:52;14.40;99.90
13808;DHT22;40769;51.512;5.494;2023-04-08T09:08:30;14.50;99.90
13808;DHT22;40769;51.512;5.494;2023-04-08T09:11:14;14.50;99.90
13808;DHT22;40769;51.512;5.494;2023-04-08T09:13:41;14.60;99.90
13808;DHT22;40769;51.512;5.494;2023-04-08T09:16:09;14.50;99.90
13808;DHT22;40769;51.512;5.494;2023-04-08T09:18:38;14.50;99.90
13808;DHT22;40769;51.512;5.494;2023-04-08T09:21:06;14.50;99.90
13808;DHT22;40769;51.512;5.494;2023-04-08T09:23:52;14.50;99.90
13808;DHT22;40769;51.512;5.494;2023-04-08T09:26:22;14.50;99.90
13808;DHT22;40769;51.512;5.494;2023-04-08T09:31:25;14.50;99.90
13808;DHT22;40769;51.512;5.494;2023-04-08T09:33:53;14.50;99.90
13808;DHT22;40769;51.512;5.494;2023-04-08T09:36:20;14.50;99.90
13808;DHT22;40769;51.512;5.494;2023-04-08T09:38:45;14.50;99.90
13808;DHT22;40769;51.512;5.494;2023-04-08T09:41:15;14.50;99.90
13808;DHT22;40769;51.512;5.494;2023-04-08T09:43:47;14.60;99.90
13808;DHT22;40769;51.512;5.494;2023-04-08T09:46:31;14.70;99.90
13808;DHT22;40769;51.512;5.494;2023-04-08T09:49:17;14.80;99.90
13808;DHT22;40769;51.512;5.494;2023-04-08T09:57:14;15.20;99.90
13808;DHT22;40769;51.512;5.494;2023-04-08T09:59:47;15.30;99.90
13808;DHT22;40769;51.512;5.494;2023-04-08T10:02:17;15.40;99.90
13808;DHT22;40769;51.512;5.494;2023-04-08T10:04:47;15.40;99.90
13808;DHT22;40769;51.512;5.494;2023-04-08T10:07:14;15.50;99.90
13808;DHT22;40769;51.512;5.494;2023-04-08T10:09:40;15.50;99.90
13808;DHT22;40769;51.512;5.494;2023-04-08T10:12:07;15.50;99.90
13808;DHT22;40769;51.512;5.494;2023-04-08T10:14:33;15.50;99.90
13808;DHT22;40769;51.512;5.494;2023-04-08T10:17:24;15.50;99.90
13808;DHT22;40769;51.512;5.494;2023-04-08T10:19:50;15.50;99.90
13808;DHT22;40769;51.512;5.494;2023-04-08T10:27:42;15.70;99.90
13808;DHT22;40769;51.512;5.494;2023-04-08T10:32:56;16.00;99.90
13808;DHT22;40769;51.512;5.494;2023-04-08T10:38:14;16.30;99.90
13808;DHT22;40769;51.512;5.494;2023-04-08T10:40:41;16.40;99.90
13808;DHT22;40769;51.512;5.494;2023-04-08T10:43:12;16.60;99.90
13808;DHT22;40769;51.512;5.494;2023-04-08T10:45:38;16.70;99.90
13808;DHT22;40769;51.512;5.494;2023-04-08T10:48:20;16.90;99.90
13808;DHT22;40769;51.512;5.494;2023-04-08T10:50:55;17.20;99.90
13808;DHT22;40769;51.512;5.494;2023-04-08T10:53:28;17.50;99.90
13808;DHT22;40769;51.512;5.494;2023-04-08T10:56:26;17.80;99.90
13808;DHT22;40769;51.512;5.494;2023-04-08T10:58:54;18.10;99.90
13808;DHT22;40769;51.512;5.494;2023-04-08T11:01:23;18.30;99.90
13808;DHT22;40769;51.512;5.494;2023-04-08T11:03:49;18.60;99.90
13808;DHT22;40769;51.512;5.494;2023-04-08T11:06:15;18.80;99.90
13808;DHT22;40769;51.512;5.494;2023-04-08T11:08:42;18.90;99.90
13808;DHT22;40769;51.512;5.494;2023-04-08T11:11:10;19.10;99.90
13808;DHT22;40769;51.512;5.494;2023-04-08T11:13:44;19.30;99.90
13808;DHT22;40769;51.512;5.494;2023-04-08T11:16:10;19.50;99.90
13808;DHT22;40769;51.512;5.494;2023-04-08T11:18:37;19.60;99.90
13808;DHT22;40769;51.512;5.494;2023-04-08T11:21:08;19.60;99.90
13808;DHT22;40769;51.512;5.494;2023-04-08T11:23:35;19.70;99.90
13808;DHT22;40769;51.512;5.494;2023-04-08T11:26:00;19.70;99.90
13808;DHT22;40769;51.512;5.494;2023-04-08T11:28:27;19.70;99.90
13808;DHT22;40769;51.512;5.494;2023-04-08T11:30:53;19.80;99.90
13808;DHT22;40769;51.512;5.494;2023-04-08T11:33:19;19.80;99.90
13808;DHT22;40769;51.512;5.494;2023-04-08T11:35:49;19.90;99.90
13808;DHT22;40769;51.512;5.494;2023-04-08T11:38:15;20.00;99.90
13808;DHT22;40769;51.512;5.494;2023-04-08T11:40:54;20.20;99.90
13808;DHT22;40769;51.512;5.494;2023-04-08T11:43:21;20.20;99.90
13808;DHT22;40769;51.512;5.494;2023-04-08T11:45:47;20.30;99.90
13808;DHT22;40769;51.512;5.494;2023-04-08T11:48:14;20.50;99.90
13808;DHT22;40769;51.512;5.494;2023-04-08T11:50:41;20.70;99.90
13808;DHT22;40769;51.512;5.494;2023-04-08T11:53:17;21.00;99.90
13808;DHT22;40769;51.512;5.494;2023-04-08T11:55:44;21.20;99.90
13808;DHT22;40769;51.512;5.494;2023-04-08T11:58:10;21.40;99.90
13808;DHT22;40769;51.512;5.494;2023-04-08T12:00:35;21.50;99.90
13808;DHT22;40769;51.512;5.494;2023-04-08T12:03:02;21.60;99.90
13808;DHT22;40769;51.512;5.494;2023-04-08T12:05:27;21.80;99.90
13808;DHT22;40769;51.512;5.494;2023-04-08T12:07:53;21.90;99.90
13808;DHT22;40769;51.512;5.494;2023-04-08T12:10:19;22.00;99.90
13808;DHT22;40769;51.512;5.494;2023-04-08T12:12:45;22.20;99.90
13808;DHT22;40769;51.512;5.494;2023-04-08T12:15:10;22.30;99.90
13808;DHT22;40769;51.512;5.494;2023-04-08T12:17:36;22.40;99.90
13808;DHT22;40769;51.512;5.494;2023-04-08T12:20:06;22.50;99.90
13808;DHT22;40769;51.512;5.494;2023-04-08T12:22:32;22.50;99.90
13808;DHT22;40769;51.512;5.494;2023-04-08T12:24:58;22.60;99.90
13808;DHT22;40769;51.512;5.494;2023-04-08T12:27:23;22.70;99.90
13808;DHT22;40769;51.512;5.494;2023-04-08T12:29:49;22.70;99.90
13808;DHT22;40769;51.512;5.494;2023-04-08T12:32:15;22.80;99.90
13808;DHT22;40769;51.512;5.494;2023-04-08T12:34:40;22.90;99.90
13808;DHT22;40769;51.512;5.494;2023-04-08T12:37:06;23.00;99.90
13808;DHT22;40769;51.512;5.494;2023-04-08T12:39:32;23.10;99.90
13808;DHT22;40769;51.512;5.494;2023-04-08T12:41:57;23.10;99.90
13808;DHT22;40769;51.512;5.494;2023-04-08T12:44:24;23.10;99.90
13808;DHT22;40769;51.512;5.494;2023-04-08T12:46:49;23.20;99.90
13808;DHT22;40769;51.512;5.494;2023-04-08T12:49:15;23.30;99.90
13808;DHT22;40769;51.512;5.494;2023-04-08T12:51:41;23.40;99.90
13808;DHT22;40769;51.512;5.494;2023-04-08T12:54:06;23.50;99.90
13808;DHT22;40769;51.512;5.494;2023-04-08T12:56:32;23.60;99.90
13808;DHT22;40769;51.512;5.494;2023-04-08T12:58:58;23.70;99.90
13808;DHT22;40769;51.512;5.494;2023-04-08T13:01:25;23.80;99.90
13808;DHT22;40769;51.512;5.494;2023-04-08T13:03:51;23.80;99.90
13808;DHT22;40769;51.512;5.494;2023-04-08T13:06:16;23.90;99.90
13808;DHT22;40769;51.512;5.494;2023-04-08T13:08:42;24.10;99.90
13808;DHT22;40769;51.512;5.494;2023-04-08T13:11:07;24.20;99.90
13808;DHT22;40769;51.512;5.494;2023-04-08T13:13:33;24.30;99.90
13808;DHT22;40769;51.512;5.494;2023-04-08T13:15:59;24.50;99.90
13808;DHT22;40769;51.512;5.494;2023-04-08T13:18:25;24.50;99.90
13808;DHT22;40769;51.512;5.494;2023-04-08T13:20:50;24.50;99.90
13808;DHT22;40769;51.512;5.494;2023-04-08T13:23:16;24.40;99.90
13808;DHT22;40769;51.512;5.494;2023-04-08T13:25:42;24.30;99.90
13808;DHT22;40769;51.512;5.494;2023-04-08T13:28:09;24.20;99.90
13808;DHT22;40769;51.512;5.494;2023-04-08T13:30:35;23.80;99.90
13808;DHT22;40769;51.512;5.494;2023-04-08T13:33:01;23.70;99.90
13808;DHT22;40769;51.512;5.494;2023-04-08T13:35:27;23.50;99.90
13808;DHT22;40769;51.512;5.494;2023-04-08T13:37:53;23.30;99.90
13808;DHT22;40769;51.512;5.494;2023-04-08T13:40:18;23.10;99.90
13808;DHT22;40769;51.512;5.494;2023-04-08T13:42:44;23.00;99.90
13808;DHT22;40769;51.512;5.494;2023-04-08T13:45:10;22.80;99.90
13808;DHT22;40769;51.512;5.494;2023-04-08T13:47:35;22.70;99.90
13808;DHT22;40769;51.512;5.494;2023-04-08T13:50:01;22.50;99.90
13808;DHT22;40769;51.512;5.494;2023-04-08T13:52:27;22.30;99.90
13808;DHT22;40769;51.512;5.494;2023-04-08T13:54:53;22.20;99.90
13808;DHT22;40769;51.512;5.494;2023-04-08T13:57:18;22.00;99.90
13808;DHT22;40769;51.512;5.494;2023-04-08T13:59:44;21.90;99.90
13808;DHT22;40769;51.512;5.494;2023-04-08T14:02:09;21.70;99.90
13808;DHT22;40769;51.512;5.494;2023-04-08T14:04:35;21.50;99.90
13808;DHT22;40769;51.512;5.494;2023-04-08T14:07:01;21.40;99.90
13808;DHT22;40769;51.512;5.494;2023-04-08T14:09:27;21.30;99.90
13808;DHT22;40769;51.512;5.494;2023-04-08T14:11:52;21.10;99.90
13808;DHT22;40769;51.512;5.494;2023-04-08T14:14:18;21.00;99.90
13808;DHT22;40769;51.512;5.494;2023-04-08T14:16:43;20.80;99.90
13808;DHT22;40769;51.512;5.494;2023-04-08T14:19:09;20.10;99.90
13808;DHT22;40769;51.512;5.494;2023-04-08T14:21:35;20.60;99.90
13808;DHT22;40769;51.512;5.494;2023-04-08T14:24:02;20.50;99.90
13808;DHT22;40769;51.512;5.494;2023-04-08T14:26:28;20.40;99.90
13808;DHT22;40769;51.512;5.494;2023-04-08T14:28:53;20.30;99.90
13808;DHT22;40769;51.512;5.494;2023-04-08T14:31:19;20.30;99.90
13808;DHT22;40769;51.512;5.494;2023-04-08T14:33:45;20.20;99.90
13808;DHT22;40769;51.512;5.494;2023-04-08T14:36:11;20.20;99.90
13808;DHT22;40769;51.512;5.494;2023-04-08T14:38:38;20.20;99.90
13808;DHT22;40769;51.512;5.494;2023-04-08T14:41:03;20.20;99.90
13808;DHT22;40769;51.512;5.494;2023-04-08T14:43:29;20.40;99.90
13808;DHT22;40769;51.512;5.494;2023-04-08T14:45:55;20.50;99.90
13808;DHT22;40769;51.512;5.494;2023-04-08T14:48:21;20.70;99.90
13808;DHT22;40769;51.512;5.494;2023-04-08T14:50:46;21.00;99.90
13808;DHT22;40769;51.512;5.494;2023-04-08T14:53:12;21.40;99.90
13808;DHT22;40769;51.512;5.494;2023-04-08T14:55:37;21.70;99.90
13808;DHT22;40769;51.512;5.494;2023-04-08T14:58:03;22.10;99.90
13808;DHT22;40769;51.512;5.494;2023-04-08T15:00:29;22.40;99.90
13808;DHT22;40769;51.512;5.494;2023-04-08T15:02:55;22.80;99.90
13808;DHT22;40769;51.512;5.494;2023-04-08T15:05:21;23.10;99.90
13808;DHT22;40769;51.512;5.494;2023-04-08T15:07:47;23.40;99.90
13808;DHT22;40769;51.512;5.494;2023-04-08T15:10:13;23.60;99.90
13808;DHT22;40769;51.512;5.494;2023-04-08T15:12:38;23.70;99.90
13808;DHT22;40769;51.512;5.494;2023-04-08T15:15:04;23.80;99.90
13808;DHT22;40769;51.512;5.494;2023-04-08T15:17:30;23.80;99.90
13808;DHT22;40769;51.512;5.494;2023-04-08T15:19:57;23.60;99.90
13808;DHT22;40769;51.512;5.494;2023-04-08T15:22:23;23.40;99.90
13808;DHT22;40769;51.512;5.494;2023-04-08T15:24:49;23.70;99.90
13808;DHT22;40769;51.512;5.494;2023-04-08T15:27:14;22.80;99.90
13808;DHT22;40769;51.512;5.494;2023-04-08T15:29:40;22.60;99.90
13808;DHT22;40769;51.512;5.494;2023-04-08T15:32:06;22.30;99.90
13808;DHT22;40769;51.512;5.494;2023-04-08T15:34:32;22.00;99.90
13808;DHT22;40769;51.512;5.494;2023-04-08T15:36:58;21.80;99.90
13808;DHT22;40769;51.512;5.494;2023-04-08T15:39:23;21.60;99.90
13808;DHT22;40769;51.512;5.494;2023-04-08T15:41:49;21.40;99.90
13808;DHT22;40769;51.512;5.494;2023-04-08T15:44:15;21.20;99.90
13808;DHT22;40769;51.512;5.494;2023-04-08T15:46:40;21.00;99.90
13808;DHT22;40769;51.512;5.494;2023-04-08T15:49:06;20.80;99.90
13808;DHT22;40769;51.512;5.494;2023-04-08T15:51:35;20.70;99.90
13808;DHT22;40769;51.512;5.494;2023-04-08T15:54:01;20.50;99.90
13808;DHT22;40769;51.512;5.494;2023-04-08T15:56:26;20.40;99.90